Time;durP1;ratioP1;P1;durP2;ratioP2;P2;SDS_P1;SDS_P2;PMS_P1;PMS_P2;Temp;Humidity;BMP_temperature;BMP_pressure;BME280_temperature;BME280_humidity;BME280_pressure;Samples;Min_cycle;Max_cycle;Signal;HPM_P1;HPM_P2
2022/08/03 00:01:10;;;;;;;1.73;1.63;;;;;;;;;;5036681;28;20945;-80
2022/08/03 00:03:38;;;;;;;1.23;1.23;;;;;;;;;;5036725;28;20249;-81
2022/08/03 00:06:06;;;;;;;1.63;1.52;;;;;;;;;;5037383;28;20234;-81
2022/08/03 00:08:33;;;;;;;1.60;1.50;;;;;;;;;;5036901;28;20284;-81
2022/08/03 00:11:01;;;;;;;1.92;1.50;;;;;;;;;;5037359;28;20259;-81
2022/08/03 00:13:28;;;;;;;1.50;1.40;;;;;;;;;;5036495;28;20230;-81
2022/08/03 00:15:56;;;;;;;1.40;1.30;;;;;;;;;;5036324;28;20293;-81
2022/08/03 00:18:25;;;;;;;1.67;1.42;;;;;;;;;;5036818;28;20301;-82
2022/08/03 00:20:52;;;;;;;1.50;1.40;;;;;;;;;;5035395;28;20234;-81
2022/08/03 00:23:20;;;;;;;1.40;1.38;;;;;;;;;;5036419;28;20765;-80
2022/08/03 00:25:47;;;;;;;1.95;1.85;;;;;;;;;;5041295;28;20230;-81
2022/08/03 00:28:15;;;;;;;1.63;1.52;;;;;;;;;;5037299;28;20241;-83
2022/08/03 00:30:42;;;;;;;1.10;1.10;;;;;;;;;;5036654;28;20305;-82
2022/08/03 00:33:10;;;;;;;1.20;1.20;;;;;;;;;;5036184;28;20242;-82
2022/08/03 00:35:39;;;;;;;1.10;1.10;;;;;;;;;;5036722;28;20285;-80
2022/08/03 00:38:07;;;;;;;1.58;1.48;;;;;;;;;;5036641;28;20682;-83
2022/08/03 00:40:34;;;;;;;1.45;1.35;;;;;;;;;;5035741;28;20254;-80
2022/08/03 00:43:04;;;;;;;1.38;1.27;;;;;;;;;;5035904;28;20234;-81
2022/08/03 00:45:34;;;;;;;1.58;1.48;;;;;;;;;;5035672;28;20234;-83
2022/08/03 00:48:03;;;;;;;1.40;1.30;;;;;;;;;;5036929;28;20596;-81
2022/08/03 00:50:34;;;;;;;1.48;1.45;;;;;;;;;;5037080;28;20234;-81
2022/08/03 00:53:06;;;;;;;1.33;1.25;;;;;;;;;;5037461;28;20203;-81
2022/08/03 00:55:35;;;;;;;1.48;1.45;;;;;;;;;;5036414;28;20206;-81
2022/08/03 00:58:05;;;;;;;1.92;1.83;;;;;;;;;;5036142;28;20342;-81
2022/08/03 01:00:34;;;;;;;1.42;1.40;;;;;;;;;;5034435;28;20214;-81
2022/08/03 01:03:02;;;;;;;1.50;1.40;;;;;;;;;;5035044;28;20313;-81
2022/08/03 01:05:30;;;;;;;1.60;1.50;;;;;;;;;;5035765;28;20237;-81
2022/08/03 01:08:06;;;;;;;1.77;1.67;;;;;;;;;;5035699;28;20233;-81
2022/08/03 01:10:41;;;;;;;1.42;1.40;;;;;;;;;;5035400;28;20245;-80
2022/08/03 01:13:22;;;;;;;1.95;1.85;;;;;;;;;;5035454;28;20227;-82
2022/08/03 01:15:59;;;;;;;1.80;1.70;;;;;;;;;;5035234;28;20292;-81
2022/08/03 01:18:36;;;;;;;1.70;1.60;;;;;;;;;;5035389;28;20228;-81
2022/08/03 01:21:10;;;;;;;1.52;1.42;;;;;;;;;;5034887;28;20218;-81
2022/08/03 01:24:13;;;;;;;1.35;1.30;;;;;;;;;;5034466;28;20209;-80
2022/08/03 01:27:05;;;;;;;1.70;1.40;;;;;;;;;;5034183;28;20256;-82
2022/08/03 01:29:59;;;;;;;1.10;1.10;;;;;;;;;;5024869;28;20213;-81
2022/08/03 01:32:36;;;;;;;1.10;1.10;;;;;;;;;;5033768;28;20280;-81
2022/08/03 01:35:07;;;;;;;1.10;1.10;;;;;;;;;;5033987;28;20281;-81
2022/08/03 01:37:40;;;;;;;1.50;1.40;;;;;;;;;;5033721;28;20245;-82
2022/08/03 01:40:12;;;;;;;1.65;1.55;;;;;;;;;;5033747;28;20257;-81
2022/08/03 01:42:41;;;;;;;1.52;1.42;;;;;;;;;;5033418;28;20754;-81
2022/08/03 01:45:12;;;;;;;1.50;1.40;;;;;;;;;;5033361;28;20198;-81
2022/08/03 01:47:41;;;;;;;1.60;1.50;;;;;;;;;;5033141;28;20686;-80
2022/08/03 01:50:10;;;;;;;1.55;1.45;;;;;;;;;;5033319;28;20237;-81
2022/08/03 01:52:40;;;;;;;1.60;1.50;;;;;;;;;;5033681;28;20245;-81
2022/08/03 01:55:09;;;;;;;1.60;1.50;;;;;;;;;;5033657;28;20230;-80
2022/08/03 01:57:39;;;;;;;1.70;1.60;;;;;;;;;;5033044;28;20213;-81
2022/08/03 02:00:10;;;;;;;1.77;1.67;;;;;;;;;;5032615;28;20241;-81
2022/08/03 02:02:38;;;;;;;1.90;1.80;;;;;;;;;;5032213;28;20222;-81
2022/08/03 02:05:09;;;;;;;1.90;1.80;;;;;;;;;;5032525;28;20209;-81
2022/08/03 02:07:37;;;;;;;1.45;1.35;;;;;;;;;;5032421;28;20206;-82
2022/08/03 02:10:07;;;;;;;1.40;1.30;;;;;;;;;;5032468;28;20238;-82
2022/08/03 02:12:35;;;;;;;1.65;1.55;;;;;;;;;;5031856;28;20242;-82
2022/08/03 02:15:03;;;;;;;1.90;1.80;;;;;;;;;;5032162;28;20252;-81
2022/08/03 02:17:34;;;;;;;2.35;1.80;;;;;;;;;;5032225;28;20245;-82
2022/08/03 02:20:02;;;;;;;1.73;1.63;;;;;;;;;;5032230;28;20209;-82
2022/08/03 02:22:30;;;;;;;1.55;1.45;;;;;;;;;;5032173;28;20720;-81
2022/08/03 02:24:58;;;;;;;1.50;1.40;;;;;;;;;;5032003;28;20264;-81
2022/08/03 02:27:28;;;;;;;1.50;1.40;;;;;;;;;;5031731;28;20644;-81
2022/08/03 02:30:01;;;;;;;1.70;1.60;;;;;;;;;;5031928;28;20674;-81
2022/08/03 02:32:34;;;;;;;1.60;1.50;;;;;;;;;;5032182;28;20317;-81
2022/08/03 02:35:04;;;;;;;1.48;1.30;;;;;;;;;;5032348;28;20262;-81
2022/08/03 02:37:36;;;;;;;2.05;1.95;;;;;;;;;;5031719;28;20242;-81
2022/08/03 02:40:06;;;;;;;1.45;1.35;;;;;;;;;;5034925;28;20242;-81
2022/08/03 02:42:34;;;;;;;1.45;1.35;;;;;;;;;;5033048;28;20251;-81
2022/08/03 02:45:05;;;;;;;1.50;1.40;;;;;;;;;;5033079;28;20252;-82
2022/08/03 02:47:36;;;;;;;1.73;1.63;;;;;;;;;;5032819;28;20309;-81
2022/08/03 02:50:05;;;;;;;1.58;1.48;;;;;;;;;;5032740;28;20305;-82
2022/08/03 02:52:34;;;;;;;1.38;1.27;;;;;;;;;;5093022;22;20235;-83
2022/08/03 02:55:04;;;;;;;1.55;1.45;;;;;;;;;;5074896;28;20229;-83
2022/08/03 02:57:33;;;;;;;1.67;1.58;;;;;;;;;;5074624;28;20268;-83
2022/08/03 03:00:01;;;;;;;1.90;1.80;;;;;;;;;;5074525;28;20208;-83
2022/08/03 03:02:29;;;;;;;1.58;1.48;;;;;;;;;;5060550;28;20316;-83
2022/08/03 03:04:58;;;;;;;1.77;1.67;;;;;;;;;;5054769;28;20232;-83
2022/08/03 03:07:26;;;;;;;1.88;1.70;;;;;;;;;;5054303;28;20654;-83
2022/08/03 03:09:55;;;;;;;1.90;1.80;;;;;;;;;;5055038;28;20241;-83
2022/08/03 03:12:23;;;;;;;2.08;1.98;;;;;;;;;;5054048;28;20226;-83
2022/08/03 03:14:51;;;;;;;1.58;1.48;;;;;;;;;;5066147;28;20208;-82
2022/08/03 03:17:19;;;;;;;3.40;2.08;;;;;;;;;;5066750;28;20202;-82
2022/08/03 03:19:46;;;;;;;1.30;1.30;;;;;;;;;;5066893;28;20237;-82
2022/08/03 03:22:16;;;;;;;1.50;1.40;;;;;;;;;;5067114;28;20221;-82
2022/08/03 03:24:46;;;;;;;1.75;1.65;;;;;;;;;;5069616;28;20234;-82
2022/08/03 03:27:15;;;;;;;1.95;1.60;;;;;;;;;;5067323;28;20251;-83
2022/08/03 03:29:43;;;;;;;1.73;1.60;;;;;;;;;;5061800;28;20264;-83
2022/08/03 03:32:10;;;;;;;1.70;1.60;;;;;;;;;;5061344;28;20264;-83
2022/08/03 03:34:38;;;;;;;1.73;1.63;;;;;;;;;;5061104;28;20667;-83
2022/08/03 03:37:05;;;;;;;1.80;1.70;;;;;;;;;;5060266;28;20677;-83
2022/08/03 03:39:35;;;;;;;2.22;2.03;;;;;;;;;;5060815;28;20245;-83
2022/08/03 03:42:03;;;;;;;1.60;1.50;;;;;;;;;;5060519;28;20218;-83
2022/08/03 03:44:30;;;;;;;1.80;1.70;;;;;;;;;;5060367;28;20226;-83
2022/08/03 03:46:58;;;;;;;2.00;1.80;;;;;;;;;;5059410;28;20206;-83
2022/08/03 03:49:27;;;;;;;1.50;1.33;;;;;;;;;;5060459;28;20281;-83
2022/08/03 03:51:55;;;;;;;1.80;1.70;;;;;;;;;;5059372;28;20321;-83
2022/08/03 03:54:23;;;;;;;1.75;1.65;;;;;;;;;;5059642;28;20634;-83
2022/08/03 03:56:51;;;;;;;1.35;1.30;;;;;;;;;;5059148;28;20208;-83
2022/08/03 03:59:19;;;;;;;1.85;1.75;;;;;;;;;;5058390;28;20580;-83
2022/08/03 04:01:46;;;;;;;1.80;1.70;;;;;;;;;;5049894;28;20246;-83
2022/08/03 04:12:45;;;;;;;1.83;1.60;;;;;;;;;;4997542;28;20671;-83
2022/08/03 04:15:13;;;;;;;1.55;1.45;;;;;;;;;;5020763;28;20675;-83
2022/08/03 04:17:41;;;;;;;1.50;1.40;;;;;;;;;;5038047;28;20628;-83
2022/08/03 04:20:11;;;;;;;1.50;1.40;;;;;;;;;;5038229;28;20225;-83
2022/08/03 04:22:40;;;;;;;1.60;1.50;;;;;;;;;;5037627;28;20269;-83
2022/08/03 04:25:10;;;;;;;1.40;1.30;;;;;;;;;;5038651;28;20317;-83
2022/08/03 04:27:40;;;;;;;1.85;1.75;;;;;;;;;;5038705;28;20745;-83
2022/08/03 04:30:10;;;;;;;2.00;1.83;;;;;;;;;;5039880;28;20288;-83
2022/08/03 04:32:38;;;;;;;2.00;1.90;;;;;;;;;;5038875;28;20368;-83
2022/08/03 04:35:08;;;;;;;1.77;1.67;;;;;;;;;;5038905;28;20200;-83
2022/08/03 04:37:41;;;;;;;1.20;1.20;;;;;;;;;;5037229;28;20289;-82
2022/08/03 04:40:13;;;;;;;1.60;1.50;;;;;;;;;;5038909;28;20678;-83
2022/08/03 04:42:42;;;;;;;1.20;1.20;;;;;;;;;;5039831;28;20229;-83
2022/08/03 04:45:13;;;;;;;1.20;1.20;;;;;;;;;;5039617;28;20316;-83
2022/08/03 04:47:41;;;;;;;1.83;1.73;;;;;;;;;;5036957;28;20614;-83
2022/08/03 04:50:10;;;;;;;1.65;1.55;;;;;;;;;;5037310;28;20679;-83
2022/08/03 04:52:37;;;;;;;1.52;1.42;;;;;;;;;;5036841;28;20318;-83
2022/08/03 04:55:06;;;;;;;1.63;1.52;;;;;;;;;;5037038;28;20729;-83
2022/08/03 04:57:34;;;;;;;1.48;1.38;;;;;;;;;;5036298;28;20281;-83
2022/08/03 05:00:01;;;;;;;3.10;1.50;;;;;;;;;;5036368;28;20237;-83
2022/08/03 05:02:31;;;;;;;1.70;1.60;;;;;;;;;;5036689;28;20245;-83
2022/08/03 05:04:59;;;;;;;1.60;1.50;;;;;;;;;;5036439;28;20795;-84
2022/08/03 05:07:26;;;;;;;1.80;1.70;;;;;;;;;;5034418;28;20289;-78
2022/08/03 05:09:54;;;;;;;1.45;1.40;;;;;;;;;;5034068;28;20293;-78
2022/08/03 05:12:22;;;;;;;1.52;1.45;;;;;;;;;;5033519;28;20288;-78
2022/08/03 05:14:50;;;;;;;1.70;1.60;;;;;;;;;;5034251;28;20234;-78
2022/08/03 05:17:18;;;;;;;1.63;1.52;;;;;;;;;;5033526;28;20248;-79
2022/08/03 05:19:47;;;;;;;1.75;1.65;;;;;;;;;;5033863;28;20209;-77
2022/08/03 05:22:14;;;;;;;2.20;2.10;;;;;;;;;;5033786;28;20312;-78
2022/08/03 05:24:42;;;;;;;1.98;1.77;;;;;;;;;;5033847;28;20232;-78
2022/08/03 05:27:11;;;;;;;2.58;2.13;;;;;;;;;;5033179;28;20242;-77
2022/08/03 05:29:38;;;;;;;2.10;1.90;;;;;;;;;;5033515;28;20202;-77
2022/08/03 05:32:06;;;;;;;2.40;2.30;;;;;;;;;;5033141;28;20265;-78
2022/08/03 05:34:34;;;;;;;2.33;2.17;;;;;;;;;;5033778;28;20206;-78
2022/08/03 05:37:02;;;;;;;2.10;2.00;;;;;;;;;;5033420;28;20202;-77
2022/08/03 05:39:30;;;;;;;2.47;2.28;;;;;;;;;;5033502;28;20297;-78
2022/08/03 05:41:57;;;;;;;2.22;2.13;;;;;;;;;;5033215;28;20309;-77
2022/08/03 05:44:25;;;;;;;2.00;1.90;;;;;;;;;;5032741;28;20225;-78
2022/08/03 05:46:53;;;;;;;1.95;1.65;;;;;;;;;;5032880;28;20210;-78
2022/08/03 05:49:20;;;;;;;2.00;1.90;;;;;;;;;;5033061;28;20237;-79
2022/08/03 05:51:48;;;;;;;1.83;1.73;;;;;;;;;;5032940;28;20796;-78
2022/08/03 05:54:17;;;;;;;2.38;2.20;;;;;;;;;;5033394;28;20225;-79
2022/08/03 05:56:44;;;;;;;2.22;2.13;;;;;;;;;;5032401;28;20238;-78
2022/08/03 05:59:12;;;;;;;2.03;1.92;;;;;;;;;;5033419;28;20326;-79
2022/08/03 06:01:39;;;;;;;1.90;1.80;;;;;;;;;;5033001;28;20309;-79
2022/08/03 06:04:07;;;;;;;2.53;2.40;;;;;;;;;;5032942;28;20232;-79
2022/08/03 06:06:34;;;;;;;2.22;2.10;;;;;;;;;;5032805;28;20497;-78
2022/08/03 06:09:01;;;;;;;2.47;2.28;;;;;;;;;;5033346;28;20237;-79
2022/08/03 06:11:30;;;;;;;2.03;1.92;;;;;;;;;;5032718;28;20726;-80
2022/08/03 06:13:58;;;;;;;2.10;1.30;;;;;;;;;;5032970;28;20198;-79
2022/08/03 06:16:25;;;;;;;2.25;2.15;;;;;;;;;;5032781;28;20289;-79
2022/08/03 06:18:53;;;;;;;1.92;1.77;;;;;;;;;;5032857;28;20249;-78
2022/08/03 06:21:20;;;;;;;2.20;2.10;;;;;;;;;;5032386;28;20300;-80
2022/08/03 06:23:48;;;;;;;2.08;1.98;;;;;;;;;;5032284;28;20708;-78
2022/08/03 06:26:15;;;;;;;2.15;2.05;;;;;;;;;;5032206;28;20313;-79
2022/08/03 06:28:48;;;;;;;2.03;1.92;;;;;;;;;;5032866;28;20292;-78
2022/08/03 06:31:15;;;;;;;2.10;2.00;;;;;;;;;;5032680;28;20230;-78
2022/08/03 06:33:43;;;;;;;1.90;1.80;;;;;;;;;;5032734;28;20236;-79
2022/08/03 06:36:10;;;;;;;2.10;1.90;;;;;;;;;;5032676;28;20230;-79
2022/08/03 06:38:38;;;;;;;1.98;1.88;;;;;;;;;;5032998;28;20646;-78
2022/08/03 06:41:05;;;;;;;2.92;2.72;;;;;;;;;;5032133;28;20586;-78
2022/08/03 06:43:34;;;;;;;1.90;1.80;;;;;;;;;;5032389;28;20308;-79
2022/08/03 06:46:04;;;;;;;2.45;2.30;;;;;;;;;;5032656;28;20237;-79
2022/08/03 06:48:32;;;;;;;2.25;2.03;;;;;;;;;;5032249;28;20210;-78
2022/08/03 06:50:59;;;;;;;2.83;2.58;;;;;;;;;;5032105;28;20741;-79
2022/08/03 06:53:27;;;;;;;2.63;2.28;;;;;;;;;;5032176;28;20294;-78
2022/08/03 06:55:54;;;;;;;2.85;2.53;;;;;;;;;;5032545;28;20289;-79
2022/08/03 06:58:22;;;;;;;2.42;2.22;;;;;;;;;;5032458;28;20293;-78
2022/08/03 07:00:49;;;;;;;2.25;2.05;;;;;;;;;;5036431;28;20664;-79
2022/08/03 07:03:19;;;;;;;2.35;2.15;;;;;;;;;;5036443;28;20202;-78
2022/08/03 07:05:46;;;;;;;2.42;1.80;;;;;;;;;;5036230;28;20248;-78
2022/08/03 07:08:14;;;;;;;2.00;1.88;;;;;;;;;;5035798;28;20289;-78
2022/08/03 07:10:42;;;;;;;2.10;1.80;;;;;;;;;;5035978;28;20301;-80
2022/08/03 07:13:09;;;;;;;2.08;1.98;;;;;;;;;;5035572;28;20206;-78
2022/08/03 07:15:37;;;;;;;2.00;1.90;;;;;;;;;;5036046;28;20194;-79
2022/08/03 07:18:05;;;;;;;2.00;1.90;;;;;;;;;;5035847;28;20202;-79
2022/08/03 07:20:34;;;;;;;2.10;1.90;;;;;;;;;;5035679;28;20213;-79
2022/08/03 07:23:01;;;;;;;2.17;2.08;;;;;;;;;;5035944;28;20745;-78
2022/08/03 07:25:29;;;;;;;1.88;1.65;;;;;;;;;;5035405;28;20252;-79
2022/08/03 07:27:56;;;;;;;1.73;1.63;;;;;;;;;;5035055;28;20245;-80
2022/08/03 07:30:24;;;;;;;1.92;1.83;;;;;;;;;;5035444;28;20503;-79
2022/08/03 07:32:51;;;;;;;1.67;1.58;;;;;;;;;;5035717;28;20215;-79
2022/08/03 07:35:19;;;;;;;1.88;1.77;;;;;;;;;;5035754;28;20198;-80
2022/08/03 07:37:48;;;;;;;2.10;1.80;;;;;;;;;;5035344;28;20242;-79
2022/08/03 07:40:16;;;;;;;1.70;1.60;;;;;;;;;;5035419;28;20285;-79
2022/08/03 07:42:44;;;;;;;1.65;1.55;;;;;;;;;;5035614;28;20689;-79
2022/08/03 07:45:11;;;;;;;1.58;1.48;;;;;;;;;;5035833;28;20233;-78
2022/08/03 07:47:39;;;;;;;3.13;1.95;;;;;;;;;;5035102;28;20292;-78
2022/08/03 07:50:08;;;;;;;2.55;1.80;;;;;;;;;;5035156;28;20209;-79
2022/08/03 07:52:48;;;;;;;2.83;1.70;;;;;;;;;;5034714;28;20333;-78
2022/08/03 07:55:18;;;;;;;1.73;1.63;;;;;;;;;;5035106;28;20201;-80
2022/08/03 07:57:46;;;;;;;1.40;1.40;;;;;;;;;;5034370;28;20298;-79
2022/08/03 08:00:17;;;;;;;1.77;1.67;;;;;;;;;;5034882;28;20301;-79
2022/08/03 08:02:45;;;;;;;2.00;1.90;;;;;;;;;;5034894;28;20226;-79
2022/08/03 08:05:13;;;;;;;2.10;1.95;;;;;;;;;;5034506;28;20301;-79
2022/08/03 08:07:41;;;;;;;1.67;1.58;;;;;;;;;;5034365;28;20761;-79
2022/08/03 08:10:10;;;;;;;1.50;1.50;;;;;;;;;;5034015;28;20293;-79
2022/08/03 08:12:40;;;;;;;1.80;1.70;;;;;;;;;;5034657;28;20261;-79
2022/08/03 08:15:09;;;;;;;1.50;1.40;;;;;;;;;;5034683;28;20208;-80
2022/08/03 08:17:43;;;;;;;1.50;1.40;;;;;;;;;;5034484;28;20202;-79
2022/08/03 08:20:15;;;;;;;1.50;1.40;;;;;;;;;;5034556;28;20749;-79
2022/08/03 08:22:42;;;;;;;1.92;1.83;;;;;;;;;;5034355;28;20820;-79
2022/08/03 08:25:10;;;;;;;1.50;1.40;;;;;;;;;;5034309;28;20202;-79
2022/08/03 08:27:44;;;;;;;2.50;1.83;;;;;;;;;;5033820;28;20666;-79
2022/08/03 08:30:14;;;;;;;1.67;1.58;;;;;;;;;;5034444;28;20205;-80
2022/08/03 08:32:41;;;;;;;2.05;1.77;;;;;;;;;;5034308;28;20650;-80
2022/08/03 08:35:11;;;;;;;1.55;1.45;;;;;;;;;;5034400;28;20206;-80
2022/08/03 08:37:39;;;;;;;1.52;1.42;;;;;;;;;;5034135;28;20297;-79
2022/08/03 08:40:08;;;;;;;1.33;1.30;;;;;;;;;;5034114;28;20202;-79
2022/08/03 08:42:38;;;;;;;1.30;1.20;;;;;;;;;;5034031;28;20253;-79
2022/08/03 08:45:10;;;;;;;1.63;1.52;;;;;;;;;;5033914;28;20202;-78
2022/08/03 08:47:39;;;;;;;1.90;1.70;;;;;;;;;;5033931;28;20313;-79
2022/08/03 08:50:09;;;;;;;1.50;1.40;;;;;;;;;;5034013;28;20199;-78
2022/08/03 08:52:40;;;;;;;1.63;1.52;;;;;;;;;;5033783;28;20231;-79
2022/08/03 08:55:10;;;;;;;1.20;1.20;;;;;;;;;;5033828;28;20206;-79
2022/08/03 08:57:42;;;;;;;1.80;1.70;;;;;;;;;;5033474;28;20298;-79
2022/08/03 09:00:13;;;;;;;1.42;1.35;;;;;;;;;;5033951;28;20281;-79
2022/08/03 09:02:42;;;;;;;1.50;1.40;;;;;;;;;;5033690;28;20226;-79
2022/08/03 09:05:12;;;;;;;1.52;1.42;;;;;;;;;;5034123;28;20211;-79
2022/08/03 09:07:39;;;;;;;1.10;1.10;;;;;;;;;;5033256;28;20226;-79
2022/08/03 09:10:08;;;;;;;1.50;1.50;;;;;;;;;;5033764;28;20639;-81
2022/08/03 09:12:40;;;;;;;1.38;1.27;;;;;;;;;;5033290;28;20305;-79
2022/08/03 09:15:22;;;;;;;2.42;1.55;;;;;;;;;;5033762;28;20194;-80
2022/08/03 09:17:49;;;;;;;1.45;1.35;;;;;;;;;;5033348;28;20198;-80
2022/08/03 09:20:17;;;;;;;1.50;1.40;;;;;;;;;;5033510;28;20210;-79
2022/08/03 09:22:57;;;;;;;2.88;1.50;;;;;;;;;;5032460;28;20304;-80
2022/08/03 09:25:30;;;;;;;1.95;1.85;;;;;;;;;;5033525;28;20347;-80
2022/08/03 09:28:07;;;;;;;1.55;1.45;;;;;;;;;;5032878;28;20312;-79
2022/08/03 09:30:37;;;;;;;2.20;2.00;;;;;;;;;;5033420;28;20579;-79
2022/08/03 09:33:06;;;;;;;2.72;1.52;;;;;;;;;;5033387;28;20249;-79
2022/08/03 09:35:39;;;;;;;1.80;1.70;;;;;;;;;;5033183;28;20636;-79
2022/08/03 09:38:12;;;;;;;2.08;1.40;;;;;;;;;;5032974;28;20284;-80
2022/08/03 09:40:40;;;;;;;2.20;1.75;;;;;;;;;;5033415;28;20206;-80
2022/08/03 09:43:08;;;;;;;1.70;1.60;;;;;;;;;;5033534;28;20616;-79
2022/08/03 09:45:39;;;;;;;2.83;2.10;;;;;;;;;;5033328;28;20263;-80
2022/08/03 09:48:22;;;;;;;1.75;1.65;;;;;;;;;;5033070;28;20312;-80
2022/08/03 09:50:51;;;;;;;1.65;1.55;;;;;;;;;;5031219;28;20237;-79
2022/08/03 09:53:19;;;;;;;1.50;1.40;;;;;;;;;;5033123;28;20265;-79
2022/08/03 09:55:54;;;;;;;1.50;1.40;;;;;;;;;;5033407;28;20292;-80
2022/08/03 09:58:22;;;;;;;2.08;1.83;;;;;;;;;;5032763;28;20296;-80
2022/08/03 10:00:58;;;;;;;1.85;1.70;;;;;;;;;;5032660;28;20689;-80
2022/08/03 10:03:27;;;;;;;1.98;1.88;;;;;;;;;;5033140;28;20633;-80
2022/08/03 10:05:55;;;;;;;1.40;1.40;;;;;;;;;;5033119;28;20280;-80
2022/08/03 10:08:23;;;;;;;1.70;1.60;;;;;;;;;;5032837;28;20309;-80
2022/08/03 10:10:53;;;;;;;1.35;1.33;;;;;;;;;;5033298;28;20308;-80
2022/08/03 10:13:23;;;;;;;1.45;1.40;;;;;;;;;;5033053;28;20202;-80
2022/08/03 10:15:50;;;;;;;1.80;1.70;;;;;;;;;;5032814;28;20210;-80
2022/08/03 10:18:19;;;;;;;1.73;1.63;;;;;;;;;;5032532;28;20236;-81
2022/08/03 10:20:51;;;;;;;1.55;1.45;;;;;;;;;;5032358;28;20225;-79
2022/08/03 10:23:20;;;;;;;1.73;1.63;;;;;;;;;;5032861;28;20659;-82
2022/08/03 10:25:50;;;;;;;1.80;1.70;;;;;;;;;;5033850;28;20202;-83
2022/08/03 10:28:19;;;;;;;1.90;1.80;;;;;;;;;;5033186;28;20243;-82
2022/08/03 10:30:52;;;;;;;1.70;1.60;;;;;;;;;;5033890;28;20226;-81
2022/08/03 10:33:24;;;;;;;2.05;1.95;;;;;;;;;;5033951;28;20681;-83
2022/08/03 10:35:55;;;;;;;3.75;1.80;;;;;;;;;;5033689;28;20208;-81
2022/08/03 10:38:32;;;;;;;2.10;2.00;;;;;;;;;;5033123;28;20293;-83
2022/08/03 10:41:00;;;;;;;1.67;1.60;;;;;;;;;;5033503;28;20324;-82
2022/08/03 10:43:40;;;;;;;2.10;2.00;;;;;;;;;;5033709;28;20240;-82
2022/08/03 10:46:08;;;;;;;1.90;1.80;;;;;;;;;;5033577;28;20276;-83
2022/08/03 10:48:38;;;;;;;2.60;1.95;;;;;;;;;;5032919;28;20843;-82
2022/08/03 10:51:06;;;;;;;2.10;1.90;;;;;;;;;;5033054;28;20812;-82
2022/08/03 10:53:39;;;;;;;1.98;1.88;;;;;;;;;;5033417;28;20209;-82
2022/08/03 10:59:59;;;;;;;1.80;1.70;;;;;;;;;;5034894;28;20205;-83
2022/08/03 11:03:10;;;;;;;1.90;1.80;;;;;;;;;;5034408;28;20232;-83
2022/08/03 11:05:42;;;;;;;1.80;1.70;;;;;;;;;;5034883;28;20197;-83
2022/08/03 11:08:24;;;;;;;1.90;1.70;;;;;;;;;;5035027;28;20264;-83
2022/08/03 11:10:54;;;;;;;1.95;1.85;;;;;;;;;;5034741;28;20317;-82
2022/08/03 11:13:23;;;;;;;1.92;1.83;;;;;;;;;;5034853;28;20662;-82
2022/08/03 11:15:53;;;;;;;1.65;1.63;;;;;;;;;;5035452;28;20677;-83
2022/08/03 11:18:21;;;;;;;1.75;1.65;;;;;;;;;;5034876;28;20285;-83
2022/08/03 11:20:52;;;;;;;1.80;1.70;;;;;;;;;;5034377;28;20264;-84
2022/08/03 11:23:42;;;;;;;1.95;1.85;;;;;;;;;;5035645;28;20256;-83
2022/08/03 11:26:14;;;;;;;2.15;1.92;;;;;;;;;;5033972;28;20293;-83
2022/08/03 11:28:44;;;;;;;2.10;2.00;;;;;;;;;;5033683;28;20289;-83
2022/08/03 11:31:47;;;;;;;1.55;1.50;;;;;;;;;;5035466;28;20230;-83
2022/08/03 11:34:16;;;;;;;2.00;1.90;;;;;;;;;;5034260;28;20567;-83
2022/08/03 11:37:23;;;;;;;1.40;1.30;;;;;;;;;;5033811;28;20212;-83
2022/08/03 11:39:55;;;;;;;1.83;1.73;;;;;;;;;;5034173;28;20198;-83
2022/08/03 11:42:47;;;;;;;1.80;1.70;;;;;;;;;;5034439;28;20244;-83
2022/08/03 11:45:15;;;;;;;1.80;1.70;;;;;;;;;;5034703;28;20205;-82
2022/08/03 11:47:43;;;;;;;1.88;1.77;;;;;;;;;;5038347;28;20804;-83
2022/08/03 11:50:11;;;;;;;1.40;1.35;;;;;;;;;;5037732;28;20206;-82
2022/08/03 11:52:41;;;;;;;1.90;1.80;;;;;;;;;;5037493;28;20236;-83
2022/08/03 11:55:17;;;;;;;1.50;1.42;;;;;;;;;;5038109;28;20206;-82
2022/08/03 11:57:46;;;;;;;1.50;1.40;;;;;;;;;;5038368;28;20227;-81
2022/08/03 12:00:29;;;;;;;2.20;2.10;;;;;;;;;;5037729;28;20206;-82
2022/08/03 12:03:06;;;;;;;1.90;1.80;;;;;;;;;;5044111;28;20244;-82
2022/08/03 12:05:50;;;;;;;1.98;1.88;;;;;;;;;;5038273;28;20197;-81
2022/08/03 12:08:29;;;;;;;2.00;1.60;;;;;;;;;;5033223;28;20217;-82
2022/08/03 12:10:59;;;;;;;1.42;1.42;;;;;;;;;;5035551;28;20256;-81
2022/08/03 12:13:27;;;;;;;1.63;1.52;;;;;;;;;;5036045;28;20229;-83
2022/08/03 12:15:57;;;;;;;1.70;1.60;;;;;;;;;;5037639;28;20209;-81
2022/08/03 12:18:25;;;;;;;1.50;1.40;;;;;;;;;;5037493;28;20210;-82
2022/08/03 12:21:03;;;;;;;1.73;1.63;;;;;;;;;;5035961;28;20221;-83
2022/08/03 12:23:32;;;;;;;1.42;1.40;;;;;;;;;;5036735;28;20204;-83
2022/08/03 12:26:03;;;;;;;2.03;1.92;;;;;;;;;;5036157;28;20269;-82
2022/08/03 12:28:31;;;;;;;1.50;1.40;;;;;;;;;;5036149;28;20289;-83
2022/08/03 12:31:05;;;;;;;1.73;1.63;;;;;;;;;;5035746;28;20254;-82
2022/08/03 12:33:33;;;;;;;2.25;2.15;;;;;;;;;;5035623;28;20212;-83
2022/08/03 12:36:08;;;;;;;1.95;1.73;;;;;;;;;;5035968;28;20292;-82
2022/08/03 12:38:38;;;;;;;1.80;1.70;;;;;;;;;;5035036;28;20645;-82
2022/08/03 12:41:12;;;;;;;1.40;1.35;;;;;;;;;;5034434;28;20305;-82
2022/08/03 12:43:48;;;;;;;1.90;1.80;;;;;;;;;;5034884;28;20686;-82
2022/08/03 12:46:18;;;;;;;1.52;1.52;;;;;;;;;;5034707;28;20603;-81
2022/08/03 12:49:09;;;;;;;1.48;1.48;;;;;;;;;;5034555;28;20229;-83
2022/08/03 12:51:55;;;;;;;1.20;1.20;;;;;;;;;;5034283;28;20237;-82
2022/08/03 12:54:26;;;;;;;1.85;1.75;;;;;;;;;;5034653;28;20198;-82
2022/08/03 12:57:01;;;;;;;1.55;1.48;;;;;;;;;;5034364;28;20202;-82
2022/08/03 12:59:32;;;;;;;1.42;1.38;;;;;;;;;;5034528;28;20744;-82
2022/08/03 13:02:00;;;;;;;1.80;1.70;;;;;;;;;;5033697;28;20225;-82
2022/08/03 13:04:29;;;;;;;1.65;1.55;;;;;;;;;;5033777;28;20294;-82
2022/08/03 13:06:59;;;;;;;1.30;1.30;;;;;;;;;;5033439;28;20216;-82
2022/08/03 13:09:28;;;;;;;1.55;1.45;;;;;;;;;;5034749;28;20297;-82
2022/08/03 13:12:07;;;;;;;1.20;1.20;;;;;;;;;;5034657;28;20313;-82
2022/08/03 13:14:35;;;;;;;1.48;1.40;;;;;;;;;;5035156;28;20205;-82
2022/08/03 13:17:02;;;;;;;1.75;1.65;;;;;;;;;;5033711;28;20223;-81
2022/08/03 13:19:31;;;;;;;1.40;1.40;;;;;;;;;;5033096;28;20197;-81
2022/08/03 13:21:58;;;;;;;1.10;1.10;;;;;;;;;;5033333;28;20228;-81
2022/08/03 13:24:27;;;;;;;1.40;1.40;;;;;;;;;;5034140;28;20313;-81
2022/08/03 13:26:55;;;;;;;1.50;1.50;;;;;;;;;;5034111;28;20289;-82
2022/08/03 13:29:23;;;;;;;1.63;1.55;;;;;;;;;;5034191;28;20709;-81
2022/08/03 13:31:50;;;;;;;1.20;1.20;;;;;;;;;;5034395;28;20268;-82
2022/08/03 13:34:18;;;;;;;1.35;1.35;;;;;;;;;;5033867;28;20299;-81
2022/08/03 13:36:46;;;;;;;1.50;1.50;;;;;;;;;;5033710;28;20201;-82
2022/08/03 13:39:13;;;;;;;1.85;1.70;;;;;;;;;;5034368;28;20638;-81
2022/08/03 13:41:42;;;;;;;1.52;1.42;;;;;;;;;;5033655;28;20279;-81
2022/08/03 13:44:10;;;;;;;1.45;1.45;;;;;;;;;;5034798;28;20674;-81
2022/08/03 13:46:37;;;;;;;1.20;1.20;;;;;;;;;;5033182;28;20202;-81
2022/08/03 13:49:05;;;;;;;1.50;1.50;;;;;;;;;;5033872;28;20320;-81
2022/08/03 13:51:33;;;;;;;1.33;1.23;;;;;;;;;;5034315;28;20611;-81
2022/08/03 13:54:00;;;;;;;1.25;1.25;;;;;;;;;;5033947;28;20293;-81
2022/08/03 13:56:28;;;;;;;1.25;1.25;;;;;;;;;;5033092;28;20298;-82
2022/08/03 13:58:58;;;;;;;1.55;1.45;;;;;;;;;;5032992;28;20288;-81
2022/08/03 14:01:26;;;;;;;2.00;1.40;;;;;;;;;;5034069;28;20229;-83
2022/08/03 14:03:55;;;;;;;1.90;1.80;;;;;;;;;;5035105;28;20288;-82
2022/08/03 14:06:23;;;;;;;1.30;1.30;;;;;;;;;;5036072;28;20246;-84
2022/08/03 14:08:51;;;;;;;1.35;1.33;;;;;;;;;;5035552;28;20636;-84
2022/08/03 14:11:18;;;;;;;1.00;1.00;;;;;;;;;;5035517;28;20316;-82
2022/08/03 14:13:46;;;;;;;1.20;1.20;;;;;;;;;;5035524;28;20288;-82
2022/08/03 14:16:15;;;;;;;1.35;1.35;;;;;;;;;;5037510;28;20314;-83
2022/08/03 14:18:42;;;;;;;1.08;1.08;;;;;;;;;;5052835;28;20279;-83
2022/08/03 14:21:10;;;;;;;1.13;1.13;;;;;;;;;;5054441;28;20237;-84
2022/08/03 14:23:38;;;;;;;1.70;1.60;;;;;;;;;;5053429;28;20626;-83
2022/08/03 14:26:06;;;;;;;1.42;1.40;;;;;;;;;;5053945;28;20232;-83
2022/08/03 14:28:34;;;;;;;1.65;1.58;;;;;;;;;;5054468;28;20292;-82
2022/08/03 14:31:02;;;;;;;1.67;1.58;;;;;;;;;;5054112;28;20750;-82
2022/08/03 14:33:31;;;;;;;1.50;1.50;;;;;;;;;;5036214;28;20198;-83
2022/08/03 14:35:59;;;;;;;1.20;1.20;;;;;;;;;;5035985;28;20789;-83
2022/08/03 14:38:26;;;;;;;1.20;1.20;;;;;;;;;;5037092;28;20643;-82
2022/08/03 14:40:54;;;;;;;1.30;1.30;;;;;;;;;;5037203;28;20213;-83
2022/08/03 14:43:21;;;;;;;1.67;1.67;;;;;;;;;;5036630;28;20198;-83
2022/08/03 14:45:51;;;;;;;1.60;1.50;;;;;;;;;;5034772;28;20260;-82
2022/08/03 14:48:18;;;;;;;1.10;1.10;;;;;;;;;;5032498;28;20202;-83
2022/08/03 14:50:47;;;;;;;1.40;1.40;;;;;;;;;;5032128;28;20261;-84
2022/08/03 14:53:16;;;;;;;1.60;1.50;;;;;;;;;;5096451;23;20335;-80
2022/08/03 14:55:44;;;;;;;1.65;1.60;;;;;;;;;;5094008;28;20199;-82
2022/08/03 14:58:12;;;;;;;1.65;1.55;;;;;;;;;;5093420;28;20210;-82
2022/08/03 15:00:39;;;;;;;1.20;1.20;;;;;;;;;;5093799;28;20205;-81
2022/08/03 15:03:07;;;;;;;1.30;1.30;;;;;;;;;;5084965;28;20316;-82
2022/08/03 15:05:34;;;;;;;1.70;1.60;;;;;;;;;;5093660;28;20290;-82
2022/08/03 15:08:03;;;;;;;1.17;1.17;;;;;;;;;;5093078;28;20235;-82
2022/08/03 15:10:31;;;;;;;1.40;1.40;;;;;;;;;;5093110;28;20549;-82
2022/08/03 15:12:58;;;;;;;1.45;1.40;;;;;;;;;;5092529;28;20306;-82